sensor_id;sensor_type;location;lat;lon;timestamp;P1;durP1;ratioP1;P2;durP2;ratioP2
40449;SDS011;41787;53.570;10.032;2023-01-28T00:02:06;2.28;;;1.10;;
40449;SDS011;41787;53.570;10.032;2023-01-28T00:04:32;5.85;;;1.00;;
40449;SDS011;41787;53.570;10.032;2023-01-28T00:06:58;5.55;;;1.20;;
40449;SDS011;41787;53.570;10.032;2023-01-28T00:09:24;2.08;;;1.13;;
40449;SDS011;41787;53.570;10.032;2023-01-28T00:11:50;2.83;;;1.10;;
40449;SDS011;41787;53.570;10.032;2023-01-28T00:14:16;7.78;;;1.40;;
40449;SDS011;41787;53.570;10.032;2023-01-28T00:16:42;1.77;;;1.02;;
40449;SDS011;41787;53.570;10.032;2023-01-28T00:19:08;4.50;;;1.08;;
40449;SDS011;41787;53.570;10.032;2023-01-28T00:21:34;2.53;;;0.80;;
40449;SDS011;41787;53.570;10.032;2023-01-28T00:24:00;1.20;;;1.10;;
40449;SDS011;41787;53.570;10.032;2023-01-28T00:26:26;3.00;;;0.93;;
40449;SDS011;41787;53.570;10.032;2023-01-28T00:28:52;1.20;;;0.68;;
40449;SDS011;41787;53.570;10.032;2023-01-28T00:31:19;5.93;;;1.08;;
40449;SDS011;41787;53.570;10.032;2023-01-28T00:33:46;3.25;;;0.80;;
40449;SDS011;41787;53.570;10.032;2023-01-28T00:36:12;2.00;;;1.08;;
40449;SDS011;41787;53.570;10.032;2023-01-28T00:38:38;4.88;;;1.38;;
40449;SDS011;41787;53.570;10.032;2023-01-28T00:41:13;3.90;;;1.00;;
40449;SDS011;41787;53.570;10.032;2023-01-28T00:43:39;3.80;;;1.33;;
40449;SDS011;41787;53.570;10.032;2023-01-28T00:46:06;3.03;;;1.00;;
40449;SDS011;41787;53.570;10.032;2023-01-28T00:48:33;1.85;;;0.90;;
40449;SDS011;41787;53.570;10.032;2023-01-28T00:50:59;1.02;;;0.93;;
40449;SDS011;41787;53.570;10.032;2023-01-28T00:53:25;3.08;;;1.00;;
40449;SDS011;41787;53.570;10.032;2023-01-28T00:55:53;2.00;;;1.05;;
40449;SDS011;41787;53.570;10.032;2023-01-28T00:58:19;3.03;;;1.35;;
40449;SDS011;41787;53.570;10.032;2023-01-28T01:00:48;4.28;;;1.10;;
40449;SDS011;41787;53.570;10.032;2023-01-28T01:03:15;2.00;;;1.08;;
40449;SDS011;41787;53.570;10.032;2023-01-28T01:05:41;2.20;;;0.90;;
40449;SDS011;41787;53.570;10.032;2023-01-28T01:08:07;2.35;;;0.85;;
40449;SDS011;41787;53.570;10.032;2023-01-28T01:10:33;1.48;;;0.70;;
40449;SDS011;41787;53.570;10.032;2023-01-28T01:12:59;3.33;;;1.20;;
40449;SDS011;41787;53.570;10.032;2023-01-28T01:15:25;4.03;;;0.80;;
40449;SDS011;41787;53.570;10.032;2023-01-28T01:17:51;1.95;;;0.80;;
40449;SDS011;41787;53.570;10.032;2023-01-28T01:20:18;1.98;;;0.90;;
40449;SDS011;41787;53.570;10.032;2023-01-28T01:22:45;2.50;;;0.93;;
40449;SDS011;41787;53.570;10.032;2023-01-28T01:25:12;3.03;;;1.23;;
40449;SDS011;41787;53.570;10.032;2023-01-28T01:27:38;3.03;;;1.15;;
40449;SDS011;41787;53.570;10.032;2023-01-28T01:30:04;4.20;;;1.50;;
40449;SDS011;41787;53.570;10.032;2023-01-28T01:32:31;2.88;;;1.33;;
40449;SDS011;41787;53.570;10.032;2023-01-28T01:34:59;5.90;;;2.65;;
40449;SDS011;41787;53.570;10.032;2023-01-28T01:37:25;3.58;;;1.48;;
40449;SDS011;41787;53.570;10.032;2023-01-28T01:39:51;3.88;;;1.40;;
40449;SDS011;41787;53.570;10.032;2023-01-28T01:47:55;3.55;;;1.20;;
40449;SDS011;41787;53.570;10.032;2023-01-28T01:50:41;3.08;;;1.10;;
40449;SDS011;41787;53.570;10.032;2023-01-28T01:53:07;2.88;;;1.05;;
40449;SDS011;41787;53.570;10.032;2023-01-28T01:55:34;3.35;;;0.90;;
40449;SDS011;41787;53.570;10.032;2023-01-28T01:58:02;2.78;;;0.90;;
40449;SDS011;41787;53.570;10.032;2023-01-28T02:00:29;1.67;;;1.08;;
40449;SDS011;41787;53.570;10.032;2023-01-28T02:02:55;1.85;;;0.80;;
40449;SDS011;41787;53.570;10.032;2023-01-28T02:05:23;5.22;;;0.88;;
40449;SDS011;41787;53.570;10.032;2023-01-28T02:07:50;1.40;;;0.90;;
40449;SDS011;41787;53.570;10.032;2023-01-28T02:10:18;2.88;;;1.30;;
40449;SDS011;41787;53.570;10.032;2023-01-28T02:12:46;3.33;;;0.82;;
40449;SDS011;41787;53.570;10.032;2023-01-28T02:15:15;2.78;;;2.08;;
40449;SDS011;41787;53.570;10.032;2023-01-28T02:17:42;2.53;;;1.20;;
40449;SDS011;41787;53.570;10.032;2023-01-28T02:20:12;3.00;;;1.15;;
40449;SDS011;41787;53.570;10.032;2023-01-28T02:22:45;2.30;;;0.85;;
40449;SDS011;41787;53.570;10.032;2023-01-28T02:30:40;1.35;;;1.13;;
40449;SDS011;41787;53.570;10.032;2023-01-28T02:33:08;2.88;;;1.50;;
40449;SDS011;41787;53.570;10.032;2023-01-28T02:35:37;1.27;;;1.13;;
40449;SDS011;41787;53.570;10.032;2023-01-28T02:38:06;5.20;;;1.50;;
40449;SDS011;41787;53.570;10.032;2023-01-28T02:40:34;2.63;;;1.33;;
40449;SDS011;41787;53.570;10.032;2023-01-28T02:43:30;5.70;;;1.30;;
40449;SDS011;41787;53.570;10.032;2023-01-28T02:45:56;5.45;;;1.50;;
40449;SDS011;41787;53.570;10.032;2023-01-28T02:48:41;3.38;;;1.30;;
40449;SDS011;41787;53.570;10.032;2023-01-28T02:51:09;3.63;;;1.30;;
40449;SDS011;41787;53.570;10.032;2023-01-28T02:53:48;2.63;;;1.10;;
40449;SDS011;41787;53.570;10.032;2023-01-28T02:56:23;6.10;;;1.30;;
40449;SDS011;41787;53.570;10.032;2023-01-28T03:01:27;2.17;;;1.25;;
40449;SDS011;41787;53.570;10.032;2023-01-28T03:03:59;4.13;;;1.63;;
40449;SDS011;41787;53.570;10.032;2023-01-28T03:06:32;1.90;;;1.02;;
40449;SDS011;41787;53.570;10.032;2023-01-28T03:09:03;2.38;;;1.20;;
40449;SDS011;41787;53.570;10.032;2023-01-28T03:11:50;1.92;;;1.10;;
40449;SDS011;41787;53.570;10.032;2023-01-28T03:14:36;1.40;;;0.88;;
40449;SDS011;41787;53.570;10.032;2023-01-28T03:17:26;3.35;;;1.15;;
40449;SDS011;41787;53.570;10.032;2023-01-28T03:20:12;1.48;;;0.98;;
40449;SDS011;41787;53.570;10.032;2023-01-28T03:22:57;2.25;;;0.93;;
40449;SDS011;41787;53.570;10.032;2023-01-28T03:25:44;1.92;;;0.80;;
40449;SDS011;41787;53.570;10.032;2023-01-28T03:28:29;3.15;;;0.90;;
40449;SDS011;41787;53.570;10.032;2023-01-28T03:31:16;1.80;;;0.82;;
40449;SDS011;41787;53.570;10.032;2023-01-28T03:34:01;1.45;;;0.80;;
40449;SDS011;41787;53.570;10.032;2023-01-28T03:36:46;1.85;;;0.80;;
40449;SDS011;41787;53.570;10.032;2023-01-28T03:39:17;3.45;;;1.50;;
40449;SDS011;41787;53.570;10.032;2023-01-28T03:42:06;2.38;;;1.02;;
40449;SDS011;41787;53.570;10.032;2023-01-28T03:44:30;3.67;;;1.10;;
40449;SDS011;41787;53.570;10.032;2023-01-28T03:47:15;1.25;;;0.80;;
40449;SDS011;41787;53.570;10.032;2023-01-28T03:49:42;3.47;;;1.80;;
40449;SDS011;41787;53.570;10.032;2023-01-28T03:52:09;2.88;;;1.20;;
40449;SDS011;41787;53.570;10.032;2023-01-28T03:54:35;2.50;;;1.33;;
40449;SDS011;41787;53.570;10.032;2023-01-28T03:57:02;1.02;;;0.90;;
40449;SDS011;41787;53.570;10.032;2023-01-28T03:59:29;2.25;;;0.90;;
40449;SDS011;41787;53.570;10.032;2023-01-28T04:01:56;3.00;;;1.42;;
40449;SDS011;41787;53.570;10.032;2023-01-28T04:04:21;0.98;;;0.85;;
40449;SDS011;41787;53.570;10.032;2023-01-28T04:06:48;2.47;;;1.33;;
40449;SDS011;41787;53.570;10.032;2023-01-28T04:09:14;3.60;;;1.27;;
40449;SDS011;41787;53.570;10.032;2023-01-28T04:11:40;2.63;;;1.00;;
40449;SDS011;41787;53.570;10.032;2023-01-28T04:14:06;1.85;;;1.20;;
40449;SDS011;41787;53.570;10.032;2023-01-28T04:16:32;7.28;;;1.90;;
40449;SDS011;41787;53.570;10.032;2023-01-28T04:18:58;4.13;;;1.50;;
40449;SDS011;41787;53.570;10.032;2023-01-28T04:21:24;3.63;;;1.30;;
40449;SDS011;41787;53.570;10.032;2023-01-28T04:23:50;2.35;;;1.60;;
40449;SDS011;41787;53.570;10.032;2023-01-28T04:26:16;2.22;;;1.55;;
40449;SDS011;41787;53.570;10.032;2023-01-28T04:28:42;2.72;;;1.98;;
40449;SDS011;41787;53.570;10.032;2023-01-28T04:31:08;2.70;;;1.52;;
40449;SDS011;41787;53.570;10.032;2023-01-28T04:33:34;3.28;;;1.80;;
40449;SDS011;41787;53.570;10.032;2023-01-28T04:36:00;5.97;;;1.90;;
40449;SDS011;41787;53.570;10.032;2023-01-28T04:38:28;4.03;;;1.88;;
40449;SDS011;41787;53.570;10.032;2023-01-28T04:40:54;6.57;;;1.70;;
40449;SDS011;41787;53.570;10.032;2023-01-28T04:43:20;4.43;;;1.63;;
40449;SDS011;41787;53.570;10.032;2023-01-28T04:45:46;3.45;;;1.70;;
40449;SDS011;41787;53.570;10.032;2023-01-28T04:48:13;3.78;;;1.83;;
40449;SDS011;41787;53.570;10.032;2023-01-28T04:50:40;3.75;;;1.85;;
40449;SDS011;41787;53.570;10.032;2023-01-28T04:53:06;5.82;;;2.05;;
40449;SDS011;41787;53.570;10.032;2023-01-28T04:55:32;4.15;;;1.70;;
40449;SDS011;41787;53.570;10.032;2023-01-28T04:57:58;4.00;;;2.00;;
40449;SDS011;41787;53.570;10.032;2023-01-28T05:00:24;2.47;;;1.70;;
40449;SDS011;41787;53.570;10.032;2023-01-28T05:02:50;4.25;;;1.88;;
40449;SDS011;41787;53.570;10.032;2023-01-28T05:05:16;8.40;;;2.10;;
40449;SDS011;41787;53.570;10.032;2023-01-28T05:07:42;2.28;;;1.80;;
40449;SDS011;41787;53.570;10.032;2023-01-28T05:10:08;5.78;;;1.85;;
40449;SDS011;41787;53.570;10.032;2023-01-28T05:12:34;3.55;;;1.60;;
40449;SDS011;41787;53.570;10.032;2023-01-28T05:15:00;3.15;;;2.30;;
40449;SDS011;41787;53.570;10.032;2023-01-28T05:17:26;3.25;;;1.80;;
40449;SDS011;41787;53.570;10.032;2023-01-28T05:19:52;4.05;;;2.10;;
40449;SDS011;41787;53.570;10.032;2023-01-28T05:22:18;4.97;;;1.80;;
40449;SDS011;41787;53.570;10.032;2023-01-28T05:24:44;5.30;;;1.80;;
40449;SDS011;41787;53.570;10.032;2023-01-28T05:27:10;5.22;;;1.95;;
40449;SDS011;41787;53.570;10.032;2023-01-28T05:29:36;5.90;;;1.90;;
40449;SDS011;41787;53.570;10.032;2023-01-28T05:32:02;4.35;;;1.80;;
40449;SDS011;41787;53.570;10.032;2023-01-28T05:34:28;6.32;;;1.95;;
40449;SDS011;41787;53.570;10.032;2023-01-28T05:36:54;6.60;;;2.20;;
40449;SDS011;41787;53.570;10.032;2023-01-28T05:39:20;5.45;;;2.20;;
40449;SDS011;41787;53.570;10.032;2023-01-28T05:41:46;3.60;;;2.33;;
40449;SDS011;41787;53.570;10.032;2023-01-28T05:44:12;4.70;;;3.08;;
40449;SDS011;41787;53.570;10.032;2023-01-28T05:46:38;4.57;;;2.35;;
40449;SDS011;41787;53.570;10.032;2023-01-28T05:49:09;4.80;;;2.33;;
40449;SDS011;41787;53.570;10.032;2023-01-28T05:51:37;8.20;;;3.20;;
40449;SDS011;41787;53.570;10.032;2023-01-28T05:54:04;5.32;;;2.40;;
40449;SDS011;41787;53.570;10.032;2023-01-28T05:56:30;5.80;;;2.60;;
40449;SDS011;41787;53.570;10.032;2023-01-28T05:58:56;5.00;;;2.63;;
40449;SDS011;41787;53.570;10.032;2023-01-28T06:01:22;4.10;;;3.00;;
40449;SDS011;41787;53.570;10.032;2023-01-28T06:03:48;4.30;;;2.53;;
40449;SDS011;41787;53.570;10.032;2023-01-28T06:06:14;6.57;;;3.00;;
40449;SDS011;41787;53.570;10.032;2023-01-28T06:08:40;4.28;;;2.85;;
40449;SDS011;41787;53.570;10.032;2023-01-28T06:11:06;5.32;;;3.42;;
40449;SDS011;41787;53.570;10.032;2023-01-28T06:13:32;5.43;;;3.47;;
40449;SDS011;41787;53.570;10.032;2023-01-28T06:15:58;6.40;;;3.00;;
40449;SDS011;41787;53.570;10.032;2023-01-28T06:18:24;5.32;;;3.28;;
40449;SDS011;41787;53.570;10.032;2023-01-28T06:20:50;4.45;;;3.15;;
40449;SDS011;41787;53.570;10.032;2023-01-28T06:23:16;6.07;;;3.38;;
40449;SDS011;41787;53.570;10.032;2023-01-28T06:25:42;7.68;;;3.60;;
40449;SDS011;41787;53.570;10.032;2023-01-28T06:28:08;6.57;;;3.60;;
40449;SDS011;41787;53.570;10.032;2023-01-28T06:30:34;8.02;;;4.38;;
40449;SDS011;41787;53.570;10.032;2023-01-28T06:33:00;7.03;;;3.55;;
40449;SDS011;41787;53.570;10.032;2023-01-28T06:35:26;7.70;;;3.65;;
40449;SDS011;41787;53.570;10.032;2023-01-28T06:37:52;5.93;;;3.78;;
40449;SDS011;41787;53.570;10.032;2023-01-28T06:40:18;5.35;;;3.78;;
40449;SDS011;41787;53.570;10.032;2023-01-28T06:42:45;6.53;;;3.50;;
40449;SDS011;41787;53.570;10.032;2023-01-28T06:45:11;10.05;;;4.10;;
40449;SDS011;41787;53.570;10.032;2023-01-28T06:47:38;7.05;;;4.05;;
40449;SDS011;41787;53.570;10.032;2023-01-28T06:50:04;6.28;;;3.47;;
40449;SDS011;41787;53.570;10.032;2023-01-28T06:52:30;7.38;;;4.35;;
40449;SDS011;41787;53.570;10.032;2023-01-28T06:54:56;5.28;;;4.07;;
40449;SDS011;41787;53.570;10.032;2023-01-28T06:57:22;6.65;;;4.50;;
40449;SDS011;41787;53.570;10.032;2023-01-28T06:59:48;7.35;;;4.60;;
40449;SDS011;41787;53.570;10.032;2023-01-28T07:02:13;9.00;;;4.70;;
40449;SDS011;41787;53.570;10.032;2023-01-28T07:04:39;9.13;;;5.20;;
40449;SDS011;41787;53.570;10.032;2023-01-28T07:07:05;5.22;;;4.20;;
40449;SDS011;41787;53.570;10.032;2023-01-28T07:09:31;6.40;;;3.88;;
40449;SDS011;41787;53.570;10.032;2023-01-28T07:11:57;5.95;;;4.25;;
40449;SDS011;41787;53.570;10.032;2023-01-28T07:14:23;6.82;;;4.10;;
40449;SDS011;41787;53.570;10.032;2023-01-28T07:16:49;9.23;;;5.03;;
40449;SDS011;41787;53.570;10.032;2023-01-28T07:19:15;6.70;;;4.63;;
40449;SDS011;41787;53.570;10.032;2023-01-28T07:21:41;10.75;;;5.25;;
40449;SDS011;41787;53.570;10.032;2023-01-28T07:24:07;6.63;;;4.80;;
40449;SDS011;41787;53.570;10.032;2023-01-28T07:26:33;7.82;;;5.00;;
40449;SDS011;41787;53.570;10.032;2023-01-28T07:28:59;8.95;;;5.05;;
40449;SDS011;41787;53.570;10.032;2023-01-28T07:31:25;7.47;;;5.60;;
40449;SDS011;41787;53.570;10.032;2023-01-28T07:33:51;6.95;;;4.95;;
40449;SDS011;41787;53.570;10.032;2023-01-28T07:36:17;10.32;;;5.45;;
40449;SDS011;41787;53.570;10.032;2023-01-28T07:38:43;7.13;;;5.63;;
40449;SDS011;41787;53.570;10.032;2023-01-28T07:41:08;8.32;;;5.10;;
40449;SDS011;41787;53.570;10.032;2023-01-28T07:43:34;9.05;;;5.95;;
40449;SDS011;41787;53.570;10.032;2023-01-28T07:46:00;9.25;;;5.90;;
40449;SDS011;41787;53.570;10.032;2023-01-28T07:48:26;6.75;;;5.80;;
40449;SDS011;41787;53.570;10.032;2023-01-28T07:50:52;11.05;;;6.38;;
40449;SDS011;41787;53.570;10.032;2023-01-28T07:53:18;7.75;;;5.97;;
40449;SDS011;41787;53.570;10.032;2023-01-28T07:55:44;9.15;;;6.47;;
40449;SDS011;41787;53.570;10.032;2023-01-28T07:58:10;6.68;;;4.35;;
40449;SDS011;41787;53.570;10.032;2023-01-28T08:00:37;11.60;;;5.72;;
40449;SDS011;41787;53.570;10.032;2023-01-28T08:03:06;8.55;;;6.03;;
40449;SDS011;41787;53.570;10.032;2023-01-28T08:05:39;8.70;;;6.65;;
40449;SDS011;41787;53.570;10.032;2023-01-28T08:08:06;7.93;;;4.57;;
40449;SDS011;41787;53.570;10.032;2023-01-28T08:10:32;10.45;;;6.47;;
40449;SDS011;41787;53.570;10.032;2023-01-28T08:12:58;9.88;;;6.80;;
40449;SDS011;41787;53.570;10.032;2023-01-28T08:15:24;13.93;;;6.88;;
40449;SDS011;41787;53.570;10.032;2023-01-28T08:17:52;10.40;;;7.07;;
40449;SDS011;41787;53.570;10.032;2023-01-28T08:20:18;13.25;;;7.43;;
40449;SDS011;41787;53.570;10.032;2023-01-28T08:22:44;9.10;;;7.05;;
40449;SDS011;41787;53.570;10.032;2023-01-28T08:25:10;11.43;;;7.00;;
40449;SDS011;41787;53.570;10.032;2023-01-28T08:27:36;16.67;;;6.88;;
40449;SDS011;41787;53.570;10.032;2023-01-28T08:30:02;9.52;;;6.55;;
40449;SDS011;41787;53.570;10.032;2023-01-28T08:32:29;12.90;;;7.13;;
40449;SDS011;41787;53.570;10.032;2023-01-28T08:34:57;13.65;;;7.95;;
40449;SDS011;41787;53.570;10.032;2023-01-28T08:37:23;9.20;;;6.93;;
40449;SDS011;41787;53.570;10.032;2023-01-28T08:39:49;10.50;;;6.90;;
40449;SDS011;41787;53.570;10.032;2023-01-28T08:42:15;17.55;;;7.07;;
40449;SDS011;41787;53.570;10.032;2023-01-28T08:44:41;11.60;;;7.57;;
40449;SDS011;41787;53.570;10.032;2023-01-28T08:47:07;8.35;;;6.28;;
40449;SDS011;41787;53.570;10.032;2023-01-28T08:49:33;10.45;;;7.13;;
40449;SDS011;41787;53.570;10.032;2023-01-28T08:51:59;7.47;;;5.20;;
40449;SDS011;41787;53.570;10.032;2023-01-28T08:54:25;12.10;;;6.35;;
40449;SDS011;41787;53.570;10.032;2023-01-28T08:56:51;9.30;;;6.75;;
40449;SDS011;41787;53.570;10.032;2023-01-28T08:59:17;11.57;;;7.28;;
40449;SDS011;41787;53.570;10.032;2023-01-28T09:01:43;8.88;;;6.32;;
40449;SDS011;41787;53.570;10.032;2023-01-28T09:04:09;11.18;;;7.10;;
40449;SDS011;41787;53.570;10.032;2023-01-28T09:06:35;12.85;;;6.45;;
40449;SDS011;41787;53.570;10.032;2023-01-28T09:09:01;7.85;;;6.38;;
40449;SDS011;41787;53.570;10.032;2023-01-28T09:11:28;8.38;;;6.25;;
40449;SDS011;41787;53.570;10.032;2023-01-28T09:13:56;7.85;;;6.85;;
40449;SDS011;41787;53.570;10.032;2023-01-28T09:16:22;8.70;;;6.30;;
40449;SDS011;41787;53.570;10.032;2023-01-28T09:18:48;12.27;;;6.78;;
40449;SDS011;41787;53.570;10.032;2023-01-28T09:21:15;10.57;;;7.22;;
40449;SDS011;41787;53.570;10.032;2023-01-28T09:23:41;12.60;;;6.75;;
40449;SDS011;41787;53.570;10.032;2023-01-28T09:26:07;8.85;;;6.15;;
40449;SDS011;41787;53.570;10.032;2023-01-28T09:28:33;10.15;;;6.60;;
40449;SDS011;41787;53.570;10.032;2023-01-28T09:31:03;12.05;;;6.93;;
40449;SDS011;41787;53.570;10.032;2023-01-28T09:33:29;10.75;;;6.63;;
40449;SDS011;41787;53.570;10.032;2023-01-28T09:35:55;7.72;;;6.28;;
40449;SDS011;41787;53.570;10.032;2023-01-28T09:38:21;10.95;;;6.45;;
40449;SDS011;41787;53.570;10.032;2023-01-28T09:40:47;10.77;;;7.00;;
40449;SDS011;41787;53.570;10.032;2023-01-28T09:43:25;8.55;;;6.13;;
40449;SDS011;41787;53.570;10.032;2023-01-28T09:45:55;6.63;;;4.15;;
40449;SDS011;41787;53.570;10.032;2023-01-28T09:48:22;10.77;;;6.72;;
40449;SDS011;41787;53.570;10.032;2023-01-28T09:50:50;8.60;;;5.57;;
40449;SDS011;41787;53.570;10.032;2023-01-28T09:53:18;9.50;;;6.13;;
40449;SDS011;41787;53.570;10.032;2023-01-28T09:55:46;10.88;;;6.68;;
40449;SDS011;41787;53.570;10.032;2023-01-28T09:58:14;16.30;;;7.10;;
40449;SDS011;41787;53.570;10.032;2023-01-28T10:00:47;9.05;;;6.57;;
40449;SDS011;41787;53.570;10.032;2023-01-28T10:03:25;11.68;;;5.95;;
40449;SDS011;41787;53.570;10.032;2023-01-28T10:06:05;9.00;;;5.72;;
40449;SDS011;41787;53.570;10.032;2023-01-28T10:14:00;7.38;;;4.75;;
40449;SDS011;41787;53.570;10.032;2023-01-28T10:16:34;9.00;;;4.53;;
40449;SDS011;41787;53.570;10.032;2023-01-28T10:19:04;8.32;;;5.18;;
40449;SDS011;41787;53.570;10.032;2023-01-28T10:24:02;6.65;;;4.40;;
40449;SDS011;41787;53.570;10.032;2023-01-28T10:26:33;7.80;;;4.53;;
40449;SDS011;41787;53.570;10.032;2023-01-28T10:29:08;6.75;;;4.40;;
40449;SDS011;41787;53.570;10.032;2023-01-28T10:31:38;5.78;;;3.88;;
40449;SDS011;41787;53.570;10.032;2023-01-28T10:34:04;6.22;;;3.97;;
40449;SDS011;41787;53.570;10.032;2023-01-28T10:36:30;5.25;;;4.20;;
40449;SDS011;41787;53.570;10.032;2023-01-28T10:38:56;7.43;;;4.47;;
40449;SDS011;41787;53.570;10.032;2023-01-28T10:41:22;5.50;;;4.13;;
40449;SDS011;41787;53.570;10.032;2023-01-28T10:43:50;6.10;;;4.13;;
40449;SDS011;41787;53.570;10.032;2023-01-28T10:46:18;7.55;;;4.30;;
40449;SDS011;41787;53.570;10.032;2023-01-28T10:48:47;6.07;;;4.35;;
40449;SDS011;41787;53.570;10.032;2023-01-28T10:51:18;8.02;;;4.55;;
40449;SDS011;41787;53.570;10.032;2023-01-28T10:53:54;9.27;;;4.85;;
40449;SDS011;41787;53.570;10.032;2023-01-28T10:56:30;9.45;;;4.63;;
40449;SDS011;41787;53.570;10.032;2023-01-28T10:59:17;8.23;;;5.57;;
40449;SDS011;41787;53.570;10.032;2023-01-28T11:04:26;9.63;;;5.65;;
40449;SDS011;41787;53.570;10.032;2023-01-28T11:06:57;7.47;;;6.18;;
40449;SDS011;41787;53.570;10.032;2023-01-28T11:09:25;12.40;;;6.90;;
40449;SDS011;41787;53.570;10.032;2023-01-28T11:11:51;9.02;;;6.57;;
40449;SDS011;41787;53.570;10.032;2023-01-28T11:14:21;11.90;;;6.45;;
40449;SDS011;41787;53.570;10.032;2023-01-28T11:16:48;8.10;;;5.95;;
40449;SDS011;41787;53.570;10.032;2023-01-28T11:19:14;9.50;;;6.82;;
40449;SDS011;41787;53.570;10.032;2023-01-28T11:21:46;11.18;;;7.10;;
40449;SDS011;41787;53.570;10.032;2023-01-28T11:24:13;8.77;;;6.60;;
40449;SDS011;41787;53.570;10.032;2023-01-28T11:26:44;10.07;;;6.95;;
40449;SDS011;41787;53.570;10.032;2023-01-28T11:29:23;19.15;;;7.28;;
40449;SDS011;41787;53.570;10.032;2023-01-28T11:31:51;8.38;;;6.50;;
40449;SDS011;41787;53.570;10.032;2023-01-28T11:34:17;10.77;;;6.03;;
40449;SDS011;41787;53.570;10.032;2023-01-28T11:36:50;9.45;;;5.30;;
40449;SDS011;41787;53.570;10.032;2023-01-28T11:39:23;9.98;;;6.43;;
40449;SDS011;41787;53.570;10.032;2023-01-28T11:41:52;10.00;;;6.97;;
40449;SDS011;41787;53.570;10.032;2023-01-28T11:46:57;9.93;;;6.63;;
40449;SDS011;41787;53.570;10.032;2023-01-28T11:51:57;9.15;;;7.07;;
40449;SDS011;41787;53.570;10.032;2023-01-28T11:54:33;9.73;;;6.43;;
40449;SDS011;41787;53.570;10.032;2023-01-28T11:57:06;8.77;;;6.77;;
40449;SDS011;41787;53.570;10.032;2023-01-28T12:08:05;12.77;;;8.20;;
40449;SDS011;41787;53.570;10.032;2023-01-28T12:21:04;12.13;;;8.68;;
40449;SDS011;41787;53.570;10.032;2023-01-28T12:23:45;10.57;;;7.47;;
40449;SDS011;41787;53.570;10.032;2023-01-28T12:26:16;13.10;;;7.93;;
40449;SDS011;41787;53.570;10.032;2023-01-28T12:28:51;11.68;;;7.60;;
40449;SDS011;41787;53.570;10.032;2023-01-28T12:31:54;10.48;;;7.32;;
40449;SDS011;41787;53.570;10.032;2023-01-28T12:44:56;12.02;;;7.50;;
40449;SDS011;41787;53.570;10.032;2023-01-28T12:47:21;10.55;;;6.82;;
40449;SDS011;41787;53.570;10.032;2023-01-28T12:49:58;16.80;;;7.70;;
40449;SDS011;41787;53.570;10.032;2023-01-28T12:57:28;10.82;;;7.70;;
40449;SDS011;41787;53.570;10.032;2023-01-28T13:00:02;12.90;;;7.40;;
40449;SDS011;41787;53.570;10.032;2023-01-28T13:02:31;10.80;;;7.93;;
40449;SDS011;41787;53.570;10.032;2023-01-28T13:05:04;11.13;;;7.32;;
40449;SDS011;41787;53.570;10.032;2023-01-28T13:07:47;9.80;;;7.72;;
40449;SDS011;41787;53.570;10.032;2023-01-28T13:12:47;12.07;;;8.15;;
40449;SDS011;41787;53.570;10.032;2023-01-28T13:15:14;11.27;;;8.02;;
40449;SDS011;41787;53.570;10.032;2023-01-28T13:17:52;13.63;;;9.07;;
40449;SDS011;41787;53.570;10.032;2023-01-28T13:20:35;13.23;;;8.77;;
40449;SDS011;41787;53.570;10.032;2023-01-28T13:23:03;13.93;;;8.73;;
40449;SDS011;41787;53.570;10.032;2023-01-28T13:25:31;14.98;;;9.73;;
40449;SDS011;41787;53.570;10.032;2023-01-28T13:27:58;12.30;;;9.05;;
40449;SDS011;41787;53.570;10.032;2023-01-28T13:30:28;17.17;;;7.95;;
40449;SDS011;41787;53.570;10.032;2023-01-28T13:32:55;15.40;;;8.45;;
40449;SDS011;41787;53.570;10.032;2023-01-28T13:35:29;15.25;;;9.30;;
40449;SDS011;41787;53.570;10.032;2023-01-28T13:37:55;14.38;;;9.27;;
40449;SDS011;41787;53.570;10.032;2023-01-28T13:40:23;15.73;;;8.75;;
40449;SDS011;41787;53.570;10.032;2023-01-28T13:42:57;12.70;;;9.18;;
40449;SDS011;41787;53.570;10.032;2023-01-28T13:45:24;14.35;;;8.68;;
40449;SDS011;41787;53.570;10.032;2023-01-28T13:47:54;18.80;;;10.68;;
40449;SDS011;41787;53.570;10.032;2023-01-28T13:50:23;15.60;;;11.52;;
40449;SDS011;41787;53.570;10.032;2023-01-28T13:55:36;19.10;;;10.32;;
40449;SDS011;41787;53.570;10.032;2023-01-28T13:58:20;15.70;;;9.98;;
40449;SDS011;41787;53.570;10.032;2023-01-28T14:03:27;16.52;;;10.40;;
40449;SDS011;41787;53.570;10.032;2023-01-28T14:18:38;19.40;;;11.90;;
40449;SDS011;41787;53.570;10.032;2023-01-28T14:21:17;18.63;;;11.13;;
40449;SDS011;41787;53.570;10.032;2023-01-28T14:23:44;15.38;;;8.30;;
40449;SDS011;41787;53.570;10.032;2023-01-28T14:26:15;19.92;;;11.25;;
40449;SDS011;41787;53.570;10.032;2023-01-28T14:31:34;16.73;;;11.48;;
40449;SDS011;41787;53.570;10.032;2023-01-28T14:34:41;17.58;;;11.15;;
40449;SDS011;41787;53.570;10.032;2023-01-28T14:36:48;19.70;;;11.65;;
40449;SDS011;41787;53.570;10.032;2023-01-28T14:39:17;17.75;;;12.27;;
40449;SDS011;41787;53.570;10.032;2023-01-28T14:41:44;17.17;;;11.10;;
40449;SDS011;41787;53.570;10.032;2023-01-28T14:44:14;16.30;;;11.65;;
40449;SDS011;41787;53.570;10.032;2023-01-28T14:46:50;16.15;;;10.70;;
40449;SDS011;41787;53.570;10.032;2023-01-28T14:51:57;18.33;;;11.83;;
40449;SDS011;41787;53.570;10.032;2023-01-28T14:54:28;17.80;;;12.15;;
40449;SDS011;41787;53.570;10.032;2023-01-28T14:57:18;17.42;;;11.57;;
40449;SDS011;41787;53.570;10.032;2023-01-28T15:02:17;21.95;;;12.25;;
40449;SDS011;41787;53.570;10.032;2023-01-28T15:04:43;19.15;;;11.65;;
40449;SDS011;41787;53.570;10.032;2023-01-28T15:07:17;14.43;;;10.55;;
40449;SDS011;41787;53.570;10.032;2023-01-28T15:09:43;18.42;;;10.77;;
40449;SDS011;41787;53.570;10.032;2023-01-28T15:12:09;15.38;;;10.90;;
40449;SDS011;41787;53.570;10.032;2023-01-28T15:14:36;14.48;;;10.30;;
40449;SDS011;41787;53.570;10.032;2023-01-28T15:17:03;15.88;;;10.57;;
40449;SDS011;41787;53.570;10.032;2023-01-28T15:19:33;16.58;;;10.93;;
40449;SDS011;41787;53.570;10.032;2023-01-28T15:22:01;21.48;;;11.75;;
40449;SDS011;41787;53.570;10.032;2023-01-28T15:24:27;17.92;;;10.43;;
40449;SDS011;41787;53.570;10.032;2023-01-28T15:26:53;13.77;;;9.80;;
40449;SDS011;41787;53.570;10.032;2023-01-28T15:29:29;16.65;;;10.40;;
40449;SDS011;41787;53.570;10.032;2023-01-28T15:31:56;15.85;;;10.60;;
40449;SDS011;41787;53.570;10.032;2023-01-28T15:34:22;16.73;;;11.18;;
40449;SDS011;41787;53.570;10.032;2023-01-28T15:36:54;14.18;;;10.10;;
40449;SDS011;41787;53.570;10.032;2023-01-28T15:39:21;16.20;;;10.95;;
40449;SDS011;41787;53.570;10.032;2023-01-28T15:42:13;17.05;;;11.50;;
40449;SDS011;41787;53.570;10.032;2023-01-28T15:44:34;13.93;;;9.48;;
40449;SDS011;41787;53.570;10.032;2023-01-28T15:47:02;18.17;;;11.18;;
40449;SDS011;41787;53.570;10.032;2023-01-28T15:49:35;18.23;;;10.60;;
40449;SDS011;41787;53.570;10.032;2023-01-28T15:52:02;18.88;;;10.93;;
40449;SDS011;41787;53.570;10.032;2023-01-28T15:54:29;17.40;;;10.95;;
40449;SDS011;41787;53.570;10.032;2023-01-28T15:56:55;15.70;;;10.18;;
40449;SDS011;41787;53.570;10.032;2023-01-28T15:59:27;16.23;;;9.98;;
40449;SDS011;41787;53.570;10.032;2023-01-28T16:04:41;17.10;;;10.40;;
40449;SDS011;41787;53.570;10.032;2023-01-28T16:07:07;18.85;;;11.52;;
40449;SDS011;41787;53.570;10.032;2023-01-28T16:09:33;20.13;;;11.30;;
40449;SDS011;41787;53.570;10.032;2023-01-28T16:12:00;18.77;;;11.75;;
40449;SDS011;41787;53.570;10.032;2023-01-28T16:14:27;19.27;;;11.00;;